Time;durP1;ratioP1;P1;durP2;ratioP2;P2;SDS_P1;SDS_P2;PMS_P1;PMS_P2;Temp;Humidity;BMP_temperature;BMP_pressure;BME280_temperature;BME280_humidity;BME280_pressure;Samples;Min_cycle;Max_cycle;Signal;HPM_P1;HPM_P2
2021/01/26 20:43:50;;;;;;;11.80;8.15;;;;;;;;;;5114164;27;851910;-53
2021/01/26 20:46:17;;;;;;;8.57;5.68;;;;;;;;;;5140145;27;20039;-47
2021/01/26 20:48:43;;;;;;;9.18;4.13;;;;;;;;;;5142225;27;20027;-43
2021/01/26 20:51:08;;;;;;;5.63;4.88;;;;;;;;;;5144541;27;20420;-51
2021/01/26 20:53:34;;;;;;;10.85;3.70;;;;;;;;;;5144713;27;20063;-43
2021/01/26 20:55:59;;;;;;;6.55;3.22;;;;;;;;;;5144618;27;20042;-46
2021/01/26 20:58:25;;;;;;;17.02;6.93;;;;;;;;;;5137429;27;20479;-48
2021/01/26 21:00:50;;;;;;;19.77;7.22;;;;;;;;;;5141496;27;20027;-50
2021/01/26 21:03:15;;;;;;;11.70;9.23;;;;;;;;;;5135700;27;20126;-49
2021/01/26 21:05:41;;;;;;;11.63;10.52;;;;;;;;;;5135580;27;20525;-50
2021/01/26 21:08:06;;;;;;;11.23;7.13;;;;;;;;;;5127956;27;20030;-49
2021/01/26 21:10:32;;;;;;;6.00;4.32;;;;;;;;;;5128697;27;20493;-45
2021/01/26 21:12:58;;;;;;;5.05;2.33;;;;;;;;;;5135555;27;20042;-42
2021/01/26 21:15:25;;;;;;;5.88;3.63;;;;;;;;;;5136365;27;20035;-46
2021/01/26 21:17:51;;;;;;;10.55;4.50;;;;;;;;;;5137806;27;20060;-47
2021/01/26 21:20:17;;;;;;;10.07;4.00;;;;;;;;;;5139217;27;20058;-43
2021/01/26 21:22:42;;;;;;;6.25;4.07;;;;;;;;;;5137981;27;20039;-47
2021/01/26 21:25:08;;;;;;;6.47;4.22;;;;;;;;;;5143206;27;20041;-44
2021/01/26 21:27:34;;;;;;;7.57;3.25;;;;;;;;;;5144102;27;20023;-44
2021/01/26 21:29:59;;;;;;;10.15;3.15;;;;;;;;;;5143519;27;20023;-43
2021/01/26 21:32:24;;;;;;;9.80;3.83;;;;;;;;;;5143664;27;20031;-44
2021/01/26 21:34:50;;;;;;;3.85;2.00;;;;;;;;;;5134538;27;20471;-49
2021/01/26 21:37:15;;;;;;;7.50;2.33;;;;;;;;;;5133740;27;20022;-49
2021/01/26 21:39:41;;;;;;;5.13;3.28;;;;;;;;;;5144986;27;20031;-41
2021/01/26 21:42:07;;;;;;;6.97;3.28;;;;;;;;;;5145591;27;20502;-44
2021/01/26 21:44:32;;;;;;;4.50;2.88;;;;;;;;;;5131484;27;20023;-46
2021/01/26 21:46:57;;;;;;;9.30;1.88;;;;;;;;;;5125605;27;20023;-47
2021/01/26 21:49:23;;;;;;;8.93;2.53;;;;;;;;;;5111903;27;20035;-43
2021/01/26 21:51:48;;;;;;;12.45;5.75;;;;;;;;;;5121407;27;20031;-42
2021/01/26 21:54:13;;;;;;;7.82;3.60;;;;;;;;;;5106125;27;20031;-45
2021/01/26 21:56:39;;;;;;;6.40;3.63;;;;;;;;;;5105353;27;20023;-52
2021/01/26 21:59:04;;;;;;;6.05;3.17;;;;;;;;;;5112093;27;20091;-46
2021/01/26 22:01:30;;;;;;;4.72;2.97;;;;;;;;;;5117956;27;20038;-47
2021/01/26 22:03:55;;;;;;;9.88;4.43;;;;;;;;;;5126978;27;20031;-44
2021/01/26 22:06:20;;;;;;;7.28;4.80;;;;;;;;;;5121298;27;20050;-44
2021/01/26 22:08:46;;;;;;;14.68;7.65;;;;;;;;;;5127743;27;20027;-51
2021/01/26 22:11:11;;;;;;;10.82;4.55;;;;;;;;;;5128458;27;20439;-46
2021/01/26 22:13:36;;;;;;;16.13;5.72;;;;;;;;;;5127045;27;20023;-41
2021/01/26 22:16:01;;;;;;;9.20;4.50;;;;;;;;;;5125390;27;20125;-52
2021/01/26 22:18:27;;;;;;;10.32;4.90;;;;;;;;;;5127964;27;20462;-44
2021/01/26 22:20:52;;;;;;;9.23;6.43;;;;;;;;;;5129379;27;20031;-46
2021/01/26 22:23:17;;;;;;;10.57;5.82;;;;;;;;;;5130533;27;20023;-44
2021/01/26 22:25:44;;;;;;;13.35;7.05;;;;;;;;;;5129917;27;20054;-48
2021/01/26 22:28:14;;;;;;;19.75;15.63;;;;;;;;;;5128386;27;20504;-45
2021/01/26 22:30:39;;;;;;;11.15;8.68;;;;;;;;;;5126645;27;20063;-50
2021/01/26 22:33:05;;;;;;;14.07;9.15;;;;;;;;;;5124352;27;20506;-43
2021/01/26 22:35:31;;;;;;;8.50;5.20;;;;;;;;;;5124864;27;20128;-44
2021/01/26 22:37:56;;;;;;;16.30;9.80;;;;;;;;;;5129439;27;20733;-44
2021/01/26 22:40:24;;;;;;;10.73;9.57;;;;;;;;;;5127140;27;20063;-51
2021/01/26 22:42:49;;;;;;;11.65;8.52;;;;;;;;;;5122226;27;20051;-43
2021/01/26 22:45:15;;;;;;;8.75;7.82;;;;;;;;;;5118074;27;20035;-50
2021/01/26 22:47:41;;;;;;;7.40;5.40;;;;;;;;;;5124200;27;20099;-44
2021/01/26 22:50:07;;;;;;;8.38;5.50;;;;;;;;;;5126791;27;20387;-43
2021/01/26 22:52:32;;;;;;;6.07;3.88;;;;;;;;;;5129024;27;20050;-41
2021/01/26 22:54:58;;;;;;;3.22;2.85;;;;;;;;;;5128511;27;20070;-58
2021/01/26 22:57:23;;;;;;;7.13;2.92;;;;;;;;;;5105404;27;20031;-59
2021/01/26 22:59:48;;;;;;;5.90;2.67;;;;;;;;;;5117671;27;20027;-44
2021/01/26 23:02:13;;;;;;;3.05;1.95;;;;;;;;;;5115905;27;20019;-46
2021/01/26 23:04:39;;;;;;;4.97;3.85;;;;;;;;;;5107379;27;20049;-45
2021/01/26 23:07:04;;;;;;;4.53;4.00;;;;;;;;;;5102139;27;20055;-41
2021/01/26 23:09:29;;;;;;;6.47;4.13;;;;;;;;;;5119492;27;20031;-44
2021/01/26 23:11:55;;;;;;;5.03;3.45;;;;;;;;;;5125075;27;20153;-44
2021/01/26 23:14:20;;;;;;;9.70;3.80;;;;;;;;;;5124554;27;20138;-49
2021/01/26 23:16:45;;;;;;;7.03;4.55;;;;;;;;;;5109507;27;20062;-46
2021/01/26 23:19:12;;;;;;;7.38;4.10;;;;;;;;;;5113982;27;20042;-50
2021/01/26 23:21:37;;;;;;;11.57;6.03;;;;;;;;;;5110038;27;20492;-40
2021/01/26 23:24:03;;;;;;;10.75;4.97;;;;;;;;;;5120465;27;20031;-45
2021/01/26 23:26:28;;;;;;;3.78;2.67;;;;;;;;;;5116226;27;20088;-43
2021/01/26 23:28:53;;;;;;;10.07;3.88;;;;;;;;;;5115473;27;20027;-50
2021/01/26 23:31:19;;;;;;;10.75;2.42;;;;;;;;;;5110383;27;20027;-43
2021/01/26 23:33:45;;;;;;;18.15;2.90;;;;;;;;;;5120441;27;20447;-48
2021/01/26 23:36:10;;;;;;;3.33;1.92;;;;;;;;;;5113426;27;20368;-45
2021/01/26 23:38:35;;;;;;;3.75;1.80;;;;;;;;;;5120852;27;20514;-41
2021/01/26 23:41:00;;;;;;;5.63;2.78;;;;;;;;;;5114258;27;20098;-51
2021/01/26 23:43:26;;;;;;;7.13;4.20;;;;;;;;;;5127376;27;20406;-49
2021/01/26 23:45:51;;;;;;;7.57;4.18;;;;;;;;;;5127042;27;20114;-45
2021/01/26 23:48:16;;;;;;;10.15;7.55;;;;;;;;;;5123268;27;20023;-45
2021/01/26 23:50:49;;;;;;;10.60;5.60;;;;;;;;;;5111754;27;20038;-44
2021/01/26 23:53:19;;;;;;;8.48;5.93;;;;;;;;;;5127722;27;20023;-47
2021/01/26 23:55:44;;;;;;;15.80;6.22;;;;;;;;;;5126393;27;20027;-42
2021/01/26 23:58:10;;;;;;;9.35;5.85;;;;;;;;;;5127068;27;20099;-44
